sensor_id;sensor_type;location;lat;lon;timestamp;P1;durP1;ratioP1;P2;durP2;ratioP2
7969;SDS011;4030;52.362;9.206;2022-08-11T00:00:10;1.65;;;1.30;;
7969;SDS011;4030;52.362;9.206;2022-08-11T00:02:39;2.70;;;1.20;;
7969;SDS011;4030;52.362;9.206;2022-08-11T00:05:12;2.50;;;1.38;;
7969;SDS011;4030;52.362;9.206;2022-08-11T00:07:44;1.98;;;1.40;;
7969;SDS011;4030;52.362;9.206;2022-08-11T00:10:14;1.85;;;1.42;;
7969;SDS011;4030;52.362;9.206;2022-08-11T00:12:49;2.20;;;1.40;;
7969;SDS011;4030;52.362;9.206;2022-08-11T00:15:36;1.80;;;1.30;;
7969;SDS011;4030;52.362;9.206;2022-08-11T00:18:08;1.33;;;1.20;;
7969;SDS011;4030;52.362;9.206;2022-08-11T00:20:37;2.30;;;1.40;;
7969;SDS011;4030;52.362;9.206;2022-08-11T00:23:06;2.45;;;1.30;;
7969;SDS011;4030;52.362;9.206;2022-08-11T00:25:38;2.13;;;1.20;;
7969;SDS011;4030;52.362;9.206;2022-08-11T00:28:27;1.80;;;1.30;;
7969;SDS011;4030;52.362;9.206;2022-08-11T00:30:57;1.33;;;1.23;;
7969;SDS011;4030;52.362;9.206;2022-08-11T00:33:38;1.48;;;1.38;;
7969;SDS011;4030;52.362;9.206;2022-08-11T00:36:07;2.03;;;1.42;;
7969;SDS011;4030;52.362;9.206;2022-08-11T00:38:37;2.05;;;1.20;;
7969;SDS011;4030;52.362;9.206;2022-08-11T00:41:10;2.03;;;1.38;;
7969;SDS011;4030;52.362;9.206;2022-08-11T00:50:03;1.50;;;1.27;;
7969;SDS011;4030;52.362;9.206;2022-08-11T01:01:56;2.00;;;1.30;;
7969;SDS011;4030;52.362;9.206;2022-08-11T01:07:55;1.60;;;1.42;;
7969;SDS011;4030;52.362;9.206;2022-08-11T01:20:42;1.92;;;1.40;;
7969;SDS011;4030;52.362;9.206;2022-08-11T01:27:20;1.52;;;1.30;;
7969;SDS011;4030;52.362;9.206;2022-08-11T01:30:19;2.40;;;1.50;;
7969;SDS011;4030;52.362;9.206;2022-08-11T01:45:35;1.40;;;1.10;;
7969;SDS011;4030;52.362;9.206;2022-08-11T01:53:22;3.05;;;1.40;;
7969;SDS011;4030;52.362;9.206;2022-08-11T01:59:24;1.67;;;1.13;;
7969;SDS011;4030;52.362;9.206;2022-08-11T02:05:10;1.88;;;1.20;;
7969;SDS011;4030;52.362;9.206;2022-08-11T02:11:29;2.47;;;1.42;;
7969;SDS011;4030;52.362;9.206;2022-08-11T02:14:18;1.25;;;1.15;;
7969;SDS011;4030;52.362;9.206;2022-08-11T02:17:04;1.55;;;1.23;;
7969;SDS011;4030;52.362;9.206;2022-08-11T02:25:55;2.25;;;1.40;;
7969;SDS011;4030;52.362;9.206;2022-08-11T02:31:58;2.60;;;1.35;;
7969;SDS011;4030;52.362;9.206;2022-08-11T02:37:52;1.95;;;1.23;;
7969;SDS011;4030;52.362;9.206;2022-08-11T02:41:00;1.20;;;1.10;;
7969;SDS011;4030;52.362;9.206;2022-08-11T02:47:35;1.58;;;1.10;;
7969;SDS011;4030;52.362;9.206;2022-08-11T02:50:46;1.63;;;1.30;;
7969;SDS011;4030;52.362;9.206;2022-08-11T02:53:38;2.97;;;1.30;;
7969;SDS011;4030;52.362;9.206;2022-08-11T02:56:20;1.25;;;1.15;;
7969;SDS011;4030;52.362;9.206;2022-08-11T03:13:27;1.52;;;1.10;;
7969;SDS011;4030;52.362;9.206;2022-08-11T03:16:15;2.25;;;1.40;;
7969;SDS011;4030;52.362;9.206;2022-08-11T03:24:38;1.70;;;1.30;;
7969;SDS011;4030;52.362;9.206;2022-08-11T03:27:30;2.13;;;1.38;;
7969;SDS011;4030;52.362;9.206;2022-08-11T03:30:05;1.70;;;1.40;;
7969;SDS011;4030;52.362;9.206;2022-08-11T03:42:07;1.60;;;1.30;;
7969;SDS011;4030;52.362;9.206;2022-08-11T03:51:00;1.80;;;1.30;;
7969;SDS011;4030;52.362;9.206;2022-08-11T04:09:55;1.33;;;1.23;;
7969;SDS011;4030;52.362;9.206;2022-08-11T04:12:25;1.60;;;1.30;;
7969;SDS011;4030;52.362;9.206;2022-08-11T04:15:26;1.65;;;1.23;;
7969;SDS011;4030;52.362;9.206;2022-08-11T04:30:07;1.98;;;1.20;;
7969;SDS011;4030;52.362;9.206;2022-08-11T05:10:53;1.27;;;1.17;;
7969;SDS011;4030;52.362;9.206;2022-08-11T05:13:34;1.60;;;1.27;;
7969;SDS011;4030;52.362;9.206;2022-08-11T05:16:29;1.67;;;1.38;;
7969;SDS011;4030;52.362;9.206;2022-08-11T05:19:25;2.03;;;1.20;;
7969;SDS011;4030;52.362;9.206;2022-08-11T05:22:11;1.88;;;1.33;;
7969;SDS011;4030;52.362;9.206;2022-08-11T05:25:06;1.58;;;1.10;;
7969;SDS011;4030;52.362;9.206;2022-08-11T05:27:59;2.33;;;1.48;;
7969;SDS011;4030;52.362;9.206;2022-08-11T05:31:08;2.17;;;1.27;;
7969;SDS011;4030;52.362;9.206;2022-08-11T05:33:57;1.42;;;1.30;;
7969;SDS011;4030;52.362;9.206;2022-08-11T05:36:54;2.20;;;1.33;;
7969;SDS011;4030;52.362;9.206;2022-08-11T05:39:30;1.65;;;1.48;;
7969;SDS011;4030;52.362;9.206;2022-08-11T05:42:20;2.13;;;1.42;;
7969;SDS011;4030;52.362;9.206;2022-08-11T05:45:13;2.33;;;1.50;;
7969;SDS011;4030;52.362;9.206;2022-08-11T05:48:00;1.75;;;1.50;;
7969;SDS011;4030;52.362;9.206;2022-08-11T05:50:54;1.33;;;1.20;;
7969;SDS011;4030;52.362;9.206;2022-08-11T05:53:45;1.65;;;1.38;;
7969;SDS011;4030;52.362;9.206;2022-08-11T05:56:33;2.55;;;1.60;;
7969;SDS011;4030;52.362;9.206;2022-08-11T05:59:18;1.75;;;1.40;;
7969;SDS011;4030;52.362;9.206;2022-08-11T06:01:48;1.73;;;1.50;;
7969;SDS011;4030;52.362;9.206;2022-08-11T06:04:19;3.13;;;1.60;;
7969;SDS011;4030;52.362;9.206;2022-08-11T06:09:30;1.88;;;1.60;;
7969;SDS011;4030;52.362;9.206;2022-08-11T06:12:25;1.90;;;1.40;;
7969;SDS011;4030;52.362;9.206;2022-08-11T06:15:03;2.28;;;1.40;;
7969;SDS011;4030;52.362;9.206;2022-08-11T06:17:32;3.22;;;1.40;;
7969;SDS011;4030;52.362;9.206;2022-08-11T06:20:11;1.88;;;1.40;;
7969;SDS011;4030;52.362;9.206;2022-08-11T06:22:41;1.48;;;1.30;;
7969;SDS011;4030;52.362;9.206;2022-08-11T06:25:10;1.45;;;1.35;;
7969;SDS011;4030;52.362;9.206;2022-08-11T06:27:37;1.98;;;1.40;;
7969;SDS011;4030;52.362;9.206;2022-08-11T06:30:05;2.78;;;1.67;;
7969;SDS011;4030;52.362;9.206;2022-08-11T06:32:37;1.80;;;1.48;;
7969;SDS011;4030;52.362;9.206;2022-08-11T06:35:22;1.70;;;1.58;;
7969;SDS011;4030;52.362;9.206;2022-08-11T06:38:12;3.05;;;1.80;;
7969;SDS011;4030;52.362;9.206;2022-08-11T06:40:52;1.95;;;1.30;;
7969;SDS011;4030;52.362;9.206;2022-08-11T06:46:31;1.98;;;1.25;;
7969;SDS011;4030;52.362;9.206;2022-08-11T06:49:03;1.42;;;1.20;;
7969;SDS011;4030;52.362;9.206;2022-08-11T06:51:57;1.65;;;1.40;;
7969;SDS011;4030;52.362;9.206;2022-08-11T06:54:35;1.73;;;1.33;;
7969;SDS011;4030;52.362;9.206;2022-08-11T06:57:05;2.25;;;1.50;;
7969;SDS011;4030;52.362;9.206;2022-08-11T06:59:52;2.75;;;1.42;;
7969;SDS011;4030;52.362;9.206;2022-08-11T07:02:43;1.73;;;1.45;;
7969;SDS011;4030;52.362;9.206;2022-08-11T07:11:58;2.85;;;1.30;;
7969;SDS011;4030;52.362;9.206;2022-08-11T07:14:54;1.50;;;1.25;;
7969;SDS011;4030;52.362;9.206;2022-08-11T07:17:43;3.35;;;1.45;;
7969;SDS011;4030;52.362;9.206;2022-08-11T07:20:34;1.80;;;1.40;;
7969;SDS011;4030;52.362;9.206;2022-08-11T07:23:21;2.58;;;1.58;;
7969;SDS011;4030;52.362;9.206;2022-08-11T07:26:06;1.95;;;1.42;;
7969;SDS011;4030;52.362;9.206;2022-08-11T07:28:51;2.95;;;1.40;;
7969;SDS011;4030;52.362;9.206;2022-08-11T07:31:23;2.05;;;1.42;;
7969;SDS011;4030;52.362;9.206;2022-08-11T07:34:04;1.48;;;1.17;;
7969;SDS011;4030;52.362;9.206;2022-08-11T07:36:52;3.65;;;1.73;;
7969;SDS011;4030;52.362;9.206;2022-08-11T07:39:22;2.88;;;1.60;;
7969;SDS011;4030;52.362;9.206;2022-08-11T07:41:52;3.75;;;1.70;;
7969;SDS011;4030;52.362;9.206;2022-08-11T07:44:21;3.28;;;1.80;;
7969;SDS011;4030;52.362;9.206;2022-08-11T07:46:55;4.85;;;1.70;;
7969;SDS011;4030;52.362;9.206;2022-08-11T07:49:59;4.40;;;1.67;;
7969;SDS011;4030;52.362;9.206;2022-08-11T07:52:44;2.05;;;1.48;;
7969;SDS011;4030;52.362;9.206;2022-08-11T07:55:11;5.10;;;1.67;;
7969;SDS011;4030;52.362;9.206;2022-08-11T07:57:40;4.63;;;1.48;;
7969;SDS011;4030;52.362;9.206;2022-08-11T08:00:28;5.03;;;1.52;;
7969;SDS011;4030;52.362;9.206;2022-08-11T08:03:12;3.00;;;1.35;;
7969;SDS011;4030;52.362;9.206;2022-08-11T08:05:57;5.93;;;1.70;;
7969;SDS011;4030;52.362;9.206;2022-08-11T08:08:42;2.67;;;1.40;;
7969;SDS011;4030;52.362;9.206;2022-08-11T08:11:26;4.93;;;1.65;;
7969;SDS011;4030;52.362;9.206;2022-08-11T08:14:11;2.20;;;1.30;;
7969;SDS011;4030;52.362;9.206;2022-08-11T08:16:56;3.55;;;1.80;;
7969;SDS011;4030;52.362;9.206;2022-08-11T08:19:42;2.00;;;1.35;;
7969;SDS011;4030;52.362;9.206;2022-08-11T08:22:11;3.88;;;1.80;;
7969;SDS011;4030;52.362;9.206;2022-08-11T08:24:40;3.47;;;1.40;;
7969;SDS011;4030;52.362;9.206;2022-08-11T08:27:07;3.63;;;1.40;;
7969;SDS011;4030;52.362;9.206;2022-08-11T08:29:36;4.53;;;1.83;;
7969;SDS011;4030;52.362;9.206;2022-08-11T08:32:22;3.65;;;1.40;;
7969;SDS011;4030;52.362;9.206;2022-08-11T08:34:52;3.30;;;1.58;;
7969;SDS011;4030;52.362;9.206;2022-08-11T08:37:20;1.95;;;1.40;;
7969;SDS011;4030;52.362;9.206;2022-08-11T08:39:48;3.65;;;1.58;;
7969;SDS011;4030;52.362;9.206;2022-08-11T08:42:25;2.40;;;1.50;;
7969;SDS011;4030;52.362;9.206;2022-08-11T08:44:56;2.53;;;1.38;;
7969;SDS011;4030;52.362;9.206;2022-08-11T08:47:29;3.72;;;1.45;;
7969;SDS011;4030;52.362;9.206;2022-08-11T08:50:02;2.40;;;1.27;;
7969;SDS011;4030;52.362;9.206;2022-08-11T08:52:33;1.77;;;1.30;;
7969;SDS011;4030;52.362;9.206;2022-08-11T08:55:04;4.38;;;1.42;;
7969;SDS011;4030;52.362;9.206;2022-08-11T08:57:32;2.35;;;1.40;;
7969;SDS011;4030;52.362;9.206;2022-08-11T09:00:01;1.98;;;1.30;;
7969;SDS011;4030;52.362;9.206;2022-08-11T09:02:29;2.05;;;1.40;;
7969;SDS011;4030;52.362;9.206;2022-08-11T09:04:55;3.33;;;1.38;;
7969;SDS011;4030;52.362;9.206;2022-08-11T09:07:22;2.35;;;1.35;;
7969;SDS011;4030;52.362;9.206;2022-08-11T09:09:51;4.20;;;1.48;;
7969;SDS011;4030;52.362;9.206;2022-08-11T09:12:21;1.80;;;1.25;;
7969;SDS011;4030;52.362;9.206;2022-08-11T09:14:53;1.90;;;1.30;;
7969;SDS011;4030;52.362;9.206;2022-08-11T09:17:34;2.45;;;1.50;;
7969;SDS011;4030;52.362;9.206;2022-08-11T09:20:20;4.22;;;1.40;;
7969;SDS011;4030;52.362;9.206;2022-08-11T09:22:50;2.28;;;1.20;;
7969;SDS011;4030;52.362;9.206;2022-08-11T09:25:39;3.28;;;1.30;;
7969;SDS011;4030;52.362;9.206;2022-08-11T09:28:24;3.15;;;1.30;;
7969;SDS011;4030;52.362;9.206;2022-08-11T09:30:54;3.08;;;1.25;;
7969;SDS011;4030;52.362;9.206;2022-08-11T09:33:25;3.70;;;1.55;;
7969;SDS011;4030;52.362;9.206;2022-08-11T09:35:53;1.98;;;1.17;;
7969;SDS011;4030;52.362;9.206;2022-08-11T09:38:21;2.88;;;1.15;;
7969;SDS011;4030;52.362;9.206;2022-08-11T09:41:09;3.42;;;1.20;;
7969;SDS011;4030;52.362;9.206;2022-08-11T09:43:37;1.70;;;1.20;;
7969;SDS011;4030;52.362;9.206;2022-08-11T09:46:27;2.47;;;1.27;;
7969;SDS011;4030;52.362;9.206;2022-08-11T09:48:54;3.67;;;1.50;;
7969;SDS011;4030;52.362;9.206;2022-08-11T09:51:24;1.77;;;1.33;;
7969;SDS011;4030;52.362;9.206;2022-08-11T09:53:55;3.03;;;1.40;;
7969;SDS011;4030;52.362;9.206;2022-08-11T09:56:25;3.20;;;1.52;;
7969;SDS011;4030;52.362;9.206;2022-08-11T09:59:11;3.83;;;1.40;;
7969;SDS011;4030;52.362;9.206;2022-08-11T10:01:44;6.18;;;1.60;;
7969;SDS011;4030;52.362;9.206;2022-08-11T10:06:40;4.32;;;1.48;;
7969;SDS011;4030;52.362;9.206;2022-08-11T10:09:27;2.35;;;1.30;;
7969;SDS011;4030;52.362;9.206;2022-08-11T10:12:17;3.45;;;1.45;;
7969;SDS011;4030;52.362;9.206;2022-08-11T10:14:57;1.95;;;1.25;;
7969;SDS011;4030;52.362;9.206;2022-08-11T10:17:48;2.35;;;1.15;;
7969;SDS011;4030;52.362;9.206;2022-08-11T10:20:40;1.35;;;1.10;;
7969;SDS011;4030;52.362;9.206;2022-08-11T10:23:09;2.17;;;1.48;;
7969;SDS011;4030;52.362;9.206;2022-08-11T10:25:55;2.85;;;1.10;;
7969;SDS011;4030;52.362;9.206;2022-08-11T10:28:40;2.13;;;1.10;;
7969;SDS011;4030;52.362;9.206;2022-08-11T10:31:07;2.50;;;1.15;;
7969;SDS011;4030;52.362;9.206;2022-08-11T10:33:52;3.00;;;1.40;;
7969;SDS011;4030;52.362;9.206;2022-08-11T10:36:25;3.63;;;1.30;;
7969;SDS011;4030;52.362;9.206;2022-08-11T10:38:52;2.13;;;1.15;;
7969;SDS011;4030;52.362;9.206;2022-08-11T10:41:20;2.65;;;1.30;;
7969;SDS011;4030;52.362;9.206;2022-08-11T10:44:05;2.00;;;1.30;;
7969;SDS011;4030;52.362;9.206;2022-08-11T10:46:33;2.58;;;1.20;;
7969;SDS011;4030;52.362;9.206;2022-08-11T10:49:18;1.60;;;1.10;;
7969;SDS011;4030;52.362;9.206;2022-08-11T10:51:46;3.28;;;1.38;;
7969;SDS011;4030;52.362;9.206;2022-08-11T10:54:31;3.42;;;1.50;;
7969;SDS011;4030;52.362;9.206;2022-08-11T10:57:17;2.45;;;1.42;;
7969;SDS011;4030;52.362;9.206;2022-08-11T11:00:03;1.33;;;1.20;;
7969;SDS011;4030;52.362;9.206;2022-08-11T11:02:31;1.90;;;1.17;;
7969;SDS011;4030;52.362;9.206;2022-08-11T11:07:57;2.90;;;1.10;;
7969;SDS011;4030;52.362;9.206;2022-08-11T11:10:53;2.22;;;1.20;;
7969;SDS011;4030;52.362;9.206;2022-08-11T11:13:20;2.03;;;1.30;;
7969;SDS011;4030;52.362;9.206;2022-08-11T11:16:08;1.60;;;1.20;;
7969;SDS011;4030;52.362;9.206;2022-08-11T11:18:49;2.67;;;1.30;;
7969;SDS011;4030;52.362;9.206;2022-08-11T11:21:17;3.25;;;1.20;;
7969;SDS011;4030;52.362;9.206;2022-08-11T11:27:13;2.03;;;1.05;;
7969;SDS011;4030;52.362;9.206;2022-08-11T11:30:20;2.58;;;1.02;;
7969;SDS011;4030;52.362;9.206;2022-08-11T11:36:16;2.80;;;1.35;;
7969;SDS011;4030;52.362;9.206;2022-08-11T11:39:07;3.20;;;1.20;;
7969;SDS011;4030;52.362;9.206;2022-08-11T11:41:33;1.63;;;1.38;;
7969;SDS011;4030;52.362;9.206;2022-08-11T11:44:00;3.90;;;1.30;;
7969;SDS011;4030;52.362;9.206;2022-08-11T11:46:26;3.42;;;1.35;;
7969;SDS011;4030;52.362;9.206;2022-08-11T11:48:54;2.05;;;1.30;;
7969;SDS011;4030;52.362;9.206;2022-08-11T11:51:21;1.75;;;1.15;;
7969;SDS011;4030;52.362;9.206;2022-08-11T11:53:48;1.55;;;1.15;;
7969;SDS011;4030;52.362;9.206;2022-08-11T11:56:15;3.63;;;1.40;;
7969;SDS011;4030;52.362;9.206;2022-08-11T11:58:41;2.95;;;1.40;;
7969;SDS011;4030;52.362;9.206;2022-08-11T12:01:26;3.10;;;1.35;;
7969;SDS011;4030;52.362;9.206;2022-08-11T12:03:53;2.80;;;1.38;;
7969;SDS011;4030;52.362;9.206;2022-08-11T12:06:22;1.30;;;1.15;;
7969;SDS011;4030;52.362;9.206;2022-08-11T12:08:49;1.83;;;1.15;;
7969;SDS011;4030;52.362;9.206;2022-08-11T12:11:20;1.13;;;1.02;;
7969;SDS011;4030;52.362;9.206;2022-08-11T12:14:07;1.73;;;1.13;;
7969;SDS011;4030;52.362;9.206;2022-08-11T12:16:34;2.88;;;1.23;;
7969;SDS011;4030;52.362;9.206;2022-08-11T12:19:16;2.85;;;1.10;;
7969;SDS011;4030;52.362;9.206;2022-08-11T12:21:45;2.38;;;1.35;;
7969;SDS011;4030;52.362;9.206;2022-08-11T12:24:31;1.80;;;1.20;;
7969;SDS011;4030;52.362;9.206;2022-08-11T12:27:17;2.67;;;1.23;;
7969;SDS011;4030;52.362;9.206;2022-08-11T12:29:48;1.85;;;1.20;;
7969;SDS011;4030;52.362;9.206;2022-08-11T12:32:30;1.98;;;1.10;;
7969;SDS011;4030;52.362;9.206;2022-08-11T12:34:59;3.78;;;1.35;;
7969;SDS011;4030;52.362;9.206;2022-08-11T12:37:33;2.25;;;1.33;;
7969;SDS011;4030;52.362;9.206;2022-08-11T12:40:15;1.92;;;1.20;;
7969;SDS011;4030;52.362;9.206;2022-08-11T12:43:06;2.35;;;1.40;;
7969;SDS011;4030;52.362;9.206;2022-08-11T12:45:56;3.22;;;1.00;;
7969;SDS011;4030;52.362;9.206;2022-08-11T12:48:27;1.80;;;1.17;;
7969;SDS011;4030;52.362;9.206;2022-08-11T12:51:19;1.55;;;1.27;;
7969;SDS011;4030;52.362;9.206;2022-08-11T12:54:12;1.63;;;1.20;;
7969;SDS011;4030;52.362;9.206;2022-08-11T12:56:44;1.90;;;1.27;;
7969;SDS011;4030;52.362;9.206;2022-08-11T12:59:32;3.35;;;1.50;;
7969;SDS011;4030;52.362;9.206;2022-08-11T13:02:18;2.55;;;1.20;;
7969;SDS011;4030;52.362;9.206;2022-08-11T13:05:06;4.57;;;1.42;;
7969;SDS011;4030;52.362;9.206;2022-08-11T13:07:37;2.33;;;1.23;;
7969;SDS011;4030;52.362;9.206;2022-08-11T13:10:07;3.08;;;1.30;;
7969;SDS011;4030;52.362;9.206;2022-08-11T13:12:36;1.92;;;1.20;;
7969;SDS011;4030;52.362;9.206;2022-08-11T13:15:19;1.92;;;1.10;;
7969;SDS011;4030;52.362;9.206;2022-08-11T13:17:47;1.92;;;1.05;;
7969;SDS011;4030;52.362;9.206;2022-08-11T13:20:17;3.58;;;1.20;;
7969;SDS011;4030;52.362;9.206;2022-08-11T13:22:48;3.10;;;1.30;;
7969;SDS011;4030;52.362;9.206;2022-08-11T13:25:18;1.50;;;1.20;;
7969;SDS011;4030;52.362;9.206;2022-08-11T13:27:47;2.25;;;1.30;;
7969;SDS011;4030;52.362;9.206;2022-08-11T13:30:15;1.73;;;1.30;;
7969;SDS011;4030;52.362;9.206;2022-08-11T13:33:01;2.33;;;1.30;;
7969;SDS011;4030;52.362;9.206;2022-08-11T13:35:31;2.65;;;1.08;;
7969;SDS011;4030;52.362;9.206;2022-08-11T13:38:00;1.70;;;1.20;;
7969;SDS011;4030;52.362;9.206;2022-08-11T13:40:30;1.65;;;1.13;;
7969;SDS011;4030;52.362;9.206;2022-08-11T13:42:57;3.15;;;1.20;;
7969;SDS011;4030;52.362;9.206;2022-08-11T13:45:24;2.53;;;1.40;;
7969;SDS011;4030;52.362;9.206;2022-08-11T13:47:51;3.97;;;1.40;;
7969;SDS011;4030;52.362;9.206;2022-08-11T13:50:20;1.63;;;1.30;;
7969;SDS011;4030;52.362;9.206;2022-08-11T13:53:11;3.13;;;1.20;;
7969;SDS011;4030;52.362;9.206;2022-08-11T13:55:40;1.73;;;1.38;;
7969;SDS011;4030;52.362;9.206;2022-08-11T13:58:08;2.15;;;1.20;;
7969;SDS011;4030;52.362;9.206;2022-08-11T14:00:36;1.00;;;1.00;;
7969;SDS011;4030;52.362;9.206;2022-08-11T14:03:02;1.58;;;1.30;;
7969;SDS011;4030;52.362;9.206;2022-08-11T14:05:36;1.90;;;1.30;;
7969;SDS011;4030;52.362;9.206;2022-08-11T14:08:08;3.42;;;1.33;;
7969;SDS011;4030;52.362;9.206;2022-08-11T14:10:37;3.03;;;1.10;;
7969;SDS011;4030;52.362;9.206;2022-08-11T14:13:08;2.38;;;1.35;;
7969;SDS011;4030;52.362;9.206;2022-08-11T14:15:59;2.17;;;1.30;;
7969;SDS011;4030;52.362;9.206;2022-08-11T14:18:30;2.28;;;1.25;;
7969;SDS011;4030;52.362;9.206;2022-08-11T14:20:58;3.10;;;1.27;;
7969;SDS011;4030;52.362;9.206;2022-08-11T14:23:46;1.67;;;1.20;;
7969;SDS011;4030;52.362;9.206;2022-08-11T14:26:15;2.38;;;1.45;;
7969;SDS011;4030;52.362;9.206;2022-08-11T14:28:51;1.77;;;1.17;;
7969;SDS011;4030;52.362;9.206;2022-08-11T14:31:31;2.00;;;1.23;;
7969;SDS011;4030;52.362;9.206;2022-08-11T14:34:00;3.03;;;1.33;;
7969;SDS011;4030;52.362;9.206;2022-08-11T14:36:34;1.65;;;1.20;;
7969;SDS011;4030;52.362;9.206;2022-08-11T14:39:07;2.42;;;1.25;;
7969;SDS011;4030;52.362;9.206;2022-08-11T14:41:42;1.88;;;1.58;;
7969;SDS011;4030;52.362;9.206;2022-08-11T14:44:30;2.75;;;1.20;;
7969;SDS011;4030;52.362;9.206;2022-08-11T14:47:17;2.28;;;1.17;;
7969;SDS011;4030;52.362;9.206;2022-08-11T14:49:43;1.45;;;1.13;;
7969;SDS011;4030;52.362;9.206;2022-08-11T14:52:14;2.78;;;1.38;;
7969;SDS011;4030;52.362;9.206;2022-08-11T14:54:42;1.58;;;1.33;;
7969;SDS011;4030;52.362;9.206;2022-08-11T14:57:28;1.90;;;1.40;;
7969;SDS011;4030;52.362;9.206;2022-08-11T14:59:58;2.75;;;1.40;;
7969;SDS011;4030;52.362;9.206;2022-08-11T15:02:26;4.15;;;1.23;;
7969;SDS011;4030;52.362;9.206;2022-08-11T15:05:11;1.15;;;0.98;;
7969;SDS011;4030;52.362;9.206;2022-08-11T15:07:37;2.28;;;1.25;;
7969;SDS011;4030;52.362;9.206;2022-08-11T15:10:05;2.85;;;1.00;;
7969;SDS011;4030;52.362;9.206;2022-08-11T15:12:33;1.75;;;1.00;;
7969;SDS011;4030;52.362;9.206;2022-08-11T15:15:02;1.58;;;1.17;;
7969;SDS011;4030;52.362;9.206;2022-08-11T15:17:50;4.47;;;1.38;;
7969;SDS011;4030;52.362;9.206;2022-08-11T15:20:19;2.65;;;1.30;;
7969;SDS011;4030;52.362;9.206;2022-08-11T15:23:05;1.88;;;1.05;;
7969;SDS011;4030;52.362;9.206;2022-08-11T15:25:52;1.38;;;1.20;;
7969;SDS011;4030;52.362;9.206;2022-08-11T15:28:22;2.88;;;1.38;;
7969;SDS011;4030;52.362;9.206;2022-08-11T15:31:09;1.95;;;1.25;;
7969;SDS011;4030;52.362;9.206;2022-08-11T15:33:52;1.65;;;1.27;;
7969;SDS011;4030;52.362;9.206;2022-08-11T15:36:40;1.60;;;1.20;;
7969;SDS011;4030;52.362;9.206;2022-08-11T15:42:37;2.95;;;1.45;;
7969;SDS011;4030;52.362;9.206;2022-08-11T15:45:30;1.98;;;1.40;;
7969;SDS011;4030;52.362;9.206;2022-08-11T15:48:13;2.15;;;1.40;;
7969;SDS011;4030;52.362;9.206;2022-08-11T15:50:47;1.38;;;1.20;;
7969;SDS011;4030;52.362;9.206;2022-08-11T15:56:06;3.95;;;1.50;;
7969;SDS011;4030;52.362;9.206;2022-08-11T15:58:36;1.98;;;1.30;;
7969;SDS011;4030;52.362;9.206;2022-08-11T16:01:28;1.40;;;1.13;;
7969;SDS011;4030;52.362;9.206;2022-08-11T16:04:15;3.83;;;1.25;;
7969;SDS011;4030;52.362;9.206;2022-08-11T16:12:11;2.65;;;1.10;;
7969;SDS011;4030;52.362;9.206;2022-08-11T16:14:45;1.77;;;1.30;;
7969;SDS011;4030;52.362;9.206;2022-08-11T16:17:34;1.23;;;1.10;;
7969;SDS011;4030;52.362;9.206;2022-08-11T16:20:06;2.20;;;1.30;;
7969;SDS011;4030;52.362;9.206;2022-08-11T16:22:34;2.03;;;1.30;;
7969;SDS011;4030;52.362;9.206;2022-08-11T16:25:08;1.20;;;1.10;;
7969;SDS011;4030;52.362;9.206;2022-08-11T16:27:47;3.03;;;1.30;;
7969;SDS011;4030;52.362;9.206;2022-08-11T16:30:30;2.03;;;1.27;;
7969;SDS011;4030;52.362;9.206;2022-08-11T16:32:58;1.48;;;1.10;;
7969;SDS011;4030;52.362;9.206;2022-08-11T16:35:28;2.05;;;1.20;;
7969;SDS011;4030;52.362;9.206;2022-08-11T16:38:15;3.20;;;1.35;;
7969;SDS011;4030;52.362;9.206;2022-08-11T16:40:59;2.85;;;1.30;;
7969;SDS011;4030;52.362;9.206;2022-08-11T16:43:38;1.77;;;1.30;;
7969;SDS011;4030;52.362;9.206;2022-08-11T16:46:28;6.07;;;1.45;;
7969;SDS011;4030;52.362;9.206;2022-08-11T16:49:20;5.18;;;1.30;;
7969;SDS011;4030;52.362;9.206;2022-08-11T16:51:54;5.10;;;1.20;;
7969;SDS011;4030;52.362;9.206;2022-08-11T16:54:20;2.88;;;1.40;;
7969;SDS011;4030;52.362;9.206;2022-08-11T16:56:50;4.47;;;1.55;;
7969;SDS011;4030;52.362;9.206;2022-08-11T16:59:31;3.17;;;1.50;;
7969;SDS011;4030;52.362;9.206;2022-08-11T17:02:05;3.40;;;1.38;;
7969;SDS011;4030;52.362;9.206;2022-08-11T17:04:38;1.42;;;1.17;;
7969;SDS011;4030;52.362;9.206;2022-08-11T17:07:35;5.40;;;1.30;;
7969;SDS011;4030;52.362;9.206;2022-08-11T17:10:24;4.88;;;1.20;;
7969;SDS011;4030;52.362;9.206;2022-08-11T17:13:16;6.82;;;1.73;;
7969;SDS011;4030;52.362;9.206;2022-08-11T17:16:09;5.93;;;1.38;;
7969;SDS011;4030;52.362;9.206;2022-08-11T17:18:50;3.95;;;1.63;;
7969;SDS011;4030;52.362;9.206;2022-08-11T17:21:32;2.17;;;1.55;;
7969;SDS011;4030;52.362;9.206;2022-08-11T17:24:21;1.63;;;1.30;;
7969;SDS011;4030;52.362;9.206;2022-08-11T17:26:51;4.82;;;1.30;;
7969;SDS011;4030;52.362;9.206;2022-08-11T17:32:16;3.75;;;1.40;;
7969;SDS011;4030;52.362;9.206;2022-08-11T17:35:13;4.45;;;1.42;;
7969;SDS011;4030;52.362;9.206;2022-08-11T17:40:37;1.98;;;1.23;;
7969;SDS011;4030;52.362;9.206;2022-08-11T17:43:28;1.73;;;1.20;;
7969;SDS011;4030;52.362;9.206;2022-08-11T17:46:16;2.83;;;1.45;;
7969;SDS011;4030;52.362;9.206;2022-08-11T17:49:05;3.70;;;1.33;;
7969;SDS011;4030;52.362;9.206;2022-08-11T17:51:34;3.17;;;1.63;;
7969;SDS011;4030;52.362;9.206;2022-08-11T17:54:20;4.63;;;1.65;;
7969;SDS011;4030;52.362;9.206;2022-08-11T17:57:06;2.88;;;1.30;;
7969;SDS011;4030;52.362;9.206;2022-08-11T17:59:52;3.03;;;1.60;;
7969;SDS011;4030;52.362;9.206;2022-08-11T18:05:10;1.77;;;1.40;;
7969;SDS011;4030;52.362;9.206;2022-08-11T18:07:37;3.42;;;1.45;;
7969;SDS011;4030;52.362;9.206;2022-08-11T18:10:24;3.67;;;1.45;;
7969;SDS011;4030;52.362;9.206;2022-08-11T18:13:09;3.05;;;1.40;;
7969;SDS011;4030;52.362;9.206;2022-08-11T18:15:55;3.47;;;1.20;;
7969;SDS011;4030;52.362;9.206;2022-08-11T18:18:39;2.53;;;1.45;;
7969;SDS011;4030;52.362;9.206;2022-08-11T18:21:23;2.53;;;1.40;;
7969;SDS011;4030;52.362;9.206;2022-08-11T18:24:10;1.55;;;1.40;;
7969;SDS011;4030;52.362;9.206;2022-08-11T18:26:57;3.00;;;1.52;;
7969;SDS011;4030;52.362;9.206;2022-08-11T18:29:46;5.63;;;1.70;;
7969;SDS011;4030;52.362;9.206;2022-08-11T18:32:33;3.65;;;1.40;;
7969;SDS011;4030;52.362;9.206;2022-08-11T18:35:19;4.05;;;1.48;;
7969;SDS011;4030;52.362;9.206;2022-08-11T18:38:08;4.60;;;1.90;;
7969;SDS011;4030;52.362;9.206;2022-08-11T18:40:55;5.95;;;1.80;;
7969;SDS011;4030;52.362;9.206;2022-08-11T18:43:42;7.10;;;1.88;;
7969;SDS011;4030;52.362;9.206;2022-08-11T18:46:34;2.50;;;1.50;;
7969;SDS011;4030;52.362;9.206;2022-08-11T18:49:22;5.35;;;2.00;;
7969;SDS011;4030;52.362;9.206;2022-08-11T18:52:10;10.15;;;2.05;;
7969;SDS011;4030;52.362;9.206;2022-08-11T18:54:57;5.13;;;1.90;;
7969;SDS011;4030;52.362;9.206;2022-08-11T18:57:45;2.25;;;1.60;;
7969;SDS011;4030;52.362;9.206;2022-08-11T19:00:31;6.38;;;1.95;;
7969;SDS011;4030;52.362;9.206;2022-08-11T19:03:17;5.93;;;1.83;;
7969;SDS011;4030;52.362;9.206;2022-08-11T19:06:04;5.43;;;2.00;;
7969;SDS011;4030;52.362;9.206;2022-08-11T19:08:53;5.90;;;1.98;;
7969;SDS011;4030;52.362;9.206;2022-08-11T19:11:42;7.03;;;1.90;;
7969;SDS011;4030;52.362;9.206;2022-08-11T19:14:29;5.13;;;2.20;;
7969;SDS011;4030;52.362;9.206;2022-08-11T19:17:15;4.43;;;1.85;;
7969;SDS011;4030;52.362;9.206;2022-08-11T19:20:03;6.10;;;2.00;;
7969;SDS011;4030;52.362;9.206;2022-08-11T19:22:51;4.32;;;1.98;;
7969;SDS011;4030;52.362;9.206;2022-08-11T19:25:38;8.02;;;1.95;;
7969;SDS011;4030;52.362;9.206;2022-08-11T19:28:26;7.90;;;2.47;;
7969;SDS011;4030;52.362;9.206;2022-08-11T19:31:13;6.88;;;2.30;;
7969;SDS011;4030;52.362;9.206;2022-08-11T19:33:58;8.43;;;2.17;;
7969;SDS011;4030;52.362;9.206;2022-08-11T19:36:43;6.40;;;2.22;;
7969;SDS011;4030;52.362;9.206;2022-08-11T19:39:28;8.70;;;2.33;;
7969;SDS011;4030;52.362;9.206;2022-08-11T19:42:13;6.25;;;2.30;;
7969;SDS011;4030;52.362;9.206;2022-08-11T19:44:59;5.50;;;1.98;;
7969;SDS011;4030;52.362;9.206;2022-08-11T19:47:46;6.00;;;2.20;;
7969;SDS011;4030;52.362;9.206;2022-08-11T19:50:31;6.28;;;1.90;;
7969;SDS011;4030;52.362;9.206;2022-08-11T19:53:17;7.88;;;2.25;;
7969;SDS011;4030;52.362;9.206;2022-08-11T19:56:04;3.22;;;1.80;;
7969;SDS011;4030;52.362;9.206;2022-08-11T19:58:50;7.55;;;2.15;;
7969;SDS011;4030;52.362;9.206;2022-08-11T20:01:35;4.63;;;1.88;;
7969;SDS011;4030;52.362;9.206;2022-08-11T20:04:20;6.22;;;2.10;;
7969;SDS011;4030;52.362;9.206;2022-08-11T20:07:04;5.53;;;1.70;;
7969;SDS011;4030;52.362;9.206;2022-08-11T20:09:50;4.05;;;1.50;;
7969;SDS011;4030;52.362;9.206;2022-08-11T20:12:36;5.18;;;2.00;;